createdAt,value
2022-08-17T00:00:12.792Z,39.83
2022-08-17T00:03:03.343Z,39.81
2022-08-17T00:05:32.023Z,39.89
2022-08-17T00:07:58.874Z,39.86
2022-08-17T00:10:25.807Z,39.92
2022-08-17T00:12:52.699Z,39.90
2022-08-17T00:15:21.555Z,39.95
2022-08-17T00:17:49.136Z,39.96
2022-08-17T00:20:15.992Z,39.91
2022-08-17T00:22:45.063Z,39.98
2022-08-17T00:25:16.723Z,40.07
2022-08-17T00:27:43.304Z,40.08
2022-08-17T00:30:10.976Z,40.09
2022-08-17T00:33:14.624Z,40.05
2022-08-17T00:35:34.046Z,40.09
2022-08-17T00:38:00.611Z,40.08
2022-08-17T00:40:27.192Z,40.04
2022-08-17T00:43:37.350Z,40.09
2022-08-17T00:46:06.957Z,40.06
2022-08-17T00:48:33.572Z,40.10
2022-08-17T00:51:23.210Z,40.12
2022-08-17T00:53:51.502Z,40.16
2022-08-17T00:56:24.133Z,40.13
2022-08-17T00:58:50.704Z,40.17
2022-08-17T01:01:21.312Z,40.15
2022-08-17T01:03:49.283Z,40.18
2022-08-17T01:06:15.981Z,40.18
2022-08-17T01:08:43.109Z,40.21
2022-08-17T01:11:09.806Z,40.22
2022-08-17T01:13:41.295Z,40.24
2022-08-17T01:16:16.434Z,40.24
2022-08-17T01:18:44.488Z,40.24
2022-08-17T01:21:14.316Z,40.20
2022-08-17T01:23:42.383Z,40.21
2022-08-17T01:26:09.108Z,40.24
2022-08-17T01:28:53.542Z,40.23
2022-08-17T01:31:21.912Z,40.22
2022-08-17T01:33:48.476Z,40.18
2022-08-17T01:36:15.048Z,40.18
2022-08-17T01:38:41.632Z,40.17
2022-08-17T01:41:11.754Z,40.18
2022-08-17T01:43:59.457Z,40.18
2022-08-17T01:46:28.284Z,40.18
2022-08-17T01:48:56.350Z,40.18
2022-08-17T01:51:23.403Z,40.19
2022-08-17T01:53:53.230Z,40.19
2022-08-17T01:56:22.085Z,40.20
2022-08-17T01:58:48.738Z,40.18
2022-08-17T02:01:19.478Z,40.22
2022-08-17T02:03:53.255Z,40.19
2022-08-17T02:06:27.822Z,40.20
2022-08-17T02:09:02.709Z,40.19
2022-08-17T02:11:30.091Z,40.18
2022-08-17T02:14:02.904Z,40.17
2022-08-17T02:16:37.415Z,40.18
2022-08-17T02:19:09.910Z,40.20
2022-08-17T02:21:37.350Z,40.19
2022-08-17T02:24:05.503Z,40.17
2022-08-17T02:26:32.113Z,40.20
2022-08-17T02:28:58.676Z,40.19
2022-08-17T02:31:25.276Z,40.21
2022-08-17T02:33:56.913Z,40.21
2022-08-17T02:36:31.114Z,40.20
2022-08-17T02:38:58.678Z,40.20
2022-08-17T02:41:25.382Z,40.21
2022-08-17T02:43:53.160Z,40.21
2022-08-17T02:46:19.757Z,40.23
2022-08-17T02:48:46.491Z,40.21
2022-08-17T02:51:13.067Z,40.21
2022-08-17T02:53:39.634Z,40.21
2022-08-17T02:56:06.459Z,40.23
2022-08-17T02:58:35.567Z,40.21
2022-08-17T03:01:04.318Z,40.22
2022-08-17T03:03:30.950Z,40.25
2022-08-17T03:05:57.898Z,40.24
2022-08-17T03:08:25.452Z,40.24
2022-08-17T03:10:52.055Z,40.25
2022-08-17T03:13:18.631Z,40.28
2022-08-17T03:15:45.639Z,40.26
2022-08-17T03:18:19.304Z,40.27
2022-08-17T03:20:51.949Z,40.30
2022-08-17T03:23:18.773Z,40.32
2022-08-17T03:25:53.051Z,40.34
2022-08-17T03:28:20.292Z,40.38
2022-08-17T03:30:46.899Z,40.38
2022-08-17T03:33:13.745Z,40.41
2022-08-17T03:35:40.614Z,40.41
2022-08-17T03:38:08.838Z,40.40
2022-08-17T03:40:57.565Z,40.41
2022-08-17T03:43:22.267Z,40.44
2022-08-17T03:46:19.284Z,40.44
2022-08-17T03:49:12.347Z,40.45
2022-08-17T03:51:57.140Z,40.48
2022-08-17T03:54:42.202Z,40.48
2022-08-17T03:57:10.061Z,40.46
2022-08-17T03:59:36.916Z,40.46
2022-08-17T04:02:09.483Z,40.44
2022-08-17T04:04:36.420Z,40.45
2022-08-17T04:07:03.183Z,40.42
2022-08-17T04:09:29.763Z,40.42
2022-08-17T04:11:57.312Z,40.43
2022-08-17T04:14:31.135Z,40.47
2022-08-17T04:16:57.726Z,40.47
2022-08-17T04:19:24.288Z,40.49
2022-08-17T04:21:50.871Z,40.52
2022-08-17T04:24:17.440Z,40.51
2022-08-17T04:26:53.826Z,40.52
2022-08-17T04:29:21.381Z,40.54
2022-08-17T04:31:48.062Z,40.53
2022-08-17T04:34:14.644Z,40.52
2022-08-17T04:36:50.329Z,40.54
2022-08-17T04:39:17.218Z,40.55
2022-08-17T04:42:09.649Z,40.57
2022-08-17T04:44:37.424Z,40.54
2022-08-17T04:47:05.081Z,40.55
2022-08-17T04:49:32.575Z,40.55
2022-08-17T04:52:04.146Z,40.53
2022-08-17T04:54:31.251Z,40.55
2022-08-17T04:56:57.832Z,40.57
2022-08-17T04:59:24.493Z,40.57
2022-08-17T05:01:51.520Z,40.54
2022-08-17T05:04:34.299Z,40.54
2022-08-17T05:07:01.300Z,40.52
2022-08-17T05:09:28.111Z,40.50
2022-08-17T05:11:55.348Z,40.52
2022-08-17T05:14:32.921Z,40.53
2022-08-17T05:17:01.124Z,40.52
2022-08-17T05:19:28.468Z,40.51
2022-08-17T05:21:55.041Z,40.50
2022-08-17T05:24:40.715Z,40.45
2022-08-17T05:27:08.483Z,40.48
2022-08-17T05:29:35.766Z,40.50
2022-08-17T05:32:38.088Z,40.49
2022-08-17T05:34:59.941Z,40.46
2022-08-17T05:37:26.543Z,40.71
2022-08-17T05:39:53.858Z,41.04
2022-08-17T05:42:20.510Z,40.30
2022-08-17T05:44:47.134Z,39.56
2022-08-17T05:47:13.712Z,38.97
2022-08-17T05:49:40.274Z,39.14
2022-08-17T05:52:29.579Z,38.81
2022-08-17T05:54:59.120Z,38.89
2022-08-17T05:58:07.591Z,38.90
2022-08-17T06:00:58.598Z,38.84
2022-08-17T06:03:37.827Z,38.87
2022-08-17T06:06:07.264Z,38.93
2022-08-17T06:08:39.524Z,39.07
2022-08-17T06:11:27.673Z,39.00
2022-08-17T06:14:26.978Z,39.03
2022-08-17T06:16:57.606Z,39.03
2022-08-17T06:19:34.217Z,39.11
2022-08-17T06:22:02.684Z,39.15
2022-08-17T06:24:37.609Z,39.24
2022-08-17T06:27:11.344Z,39.24
2022-08-17T06:29:41.230Z,39.28
2022-08-17T06:32:09.098Z,39.40
2022-08-17T06:34:37.390Z,40.14
2022-08-17T06:37:22.104Z,40.33
2022-08-17T06:39:52.441Z,40.73
2022-08-17T06:43:06.450Z,40.40
2022-08-17T06:45:34.677Z,40.56
2022-08-17T06:48:07.141Z,40.61
2022-08-17T06:51:04.193Z,40.52
2022-08-17T06:53:40.475Z,40.68
2022-08-17T06:56:09.382Z,40.59
2022-08-17T06:58:37.366Z,40.68
2022-08-17T07:01:12.997Z,40.58
2022-08-17T07:03:54.764Z,40.72
2022-08-17T07:06:23.863Z,40.68
2022-08-17T07:09:14.889Z,40.70
2022-08-17T07:11:51.895Z,40.56
2022-08-17T07:14:44.838Z,40.50
2022-08-17T07:17:13.474Z,40.58
2022-08-17T07:19:41.038Z,40.52
2022-08-17T07:22:10.717Z,40.56
2022-08-17T07:24:58.291Z,40.78
2022-08-17T07:27:51.823Z,40.99
2022-08-17T07:30:21.693Z,40.93
2022-08-17T07:32:51.541Z,41.12
2022-08-17T07:35:23.080Z,42.00
2022-08-17T07:38:25.664Z,41.67
2022-08-17T07:40:57.586Z,42.08
2022-08-17T07:43:37.143Z,42.06
2022-08-17T07:46:38.730Z,41.94
2022-08-17T07:49:08.477Z,41.63
2022-08-17T07:51:55.344Z,41.78
2022-08-17T07:54:35.686Z,41.80
2022-08-17T07:57:14.452Z,41.68
2022-08-17T07:59:43.288Z,41.71
2022-08-17T08:02:31.653Z,41.58
2022-08-17T08:05:13.006Z,41.52
2022-08-17T08:07:52.812Z,41.29
2022-08-17T08:10:28.679Z,40.89
2022-08-17T08:13:20.589Z,40.63
2022-08-17T08:15:53.682Z,40.44
2022-08-17T08:18:53.911Z,40.04
2022-08-17T08:21:22.416Z,39.59
2022-08-17T08:24:21.582Z,39.87
2022-08-17T08:26:47.991Z,39.79
2022-08-17T08:29:22.638Z,39.44
2022-08-17T08:32:10.791Z,38.61
2022-08-17T08:35:01.759Z,38.43
2022-08-17T08:37:49.981Z,38.57
2022-08-17T08:40:29.994Z,38.72
2022-08-17T08:43:26.678Z,39.39
2022-08-17T08:46:24.253Z,39.21
2022-08-17T08:49:10.182Z,38.78
2022-08-17T08:51:55.684Z,38.78
2022-08-17T08:54:31.420Z,38.76
2022-08-17T09:00:05.952Z,38.63
2022-08-17T09:03:03.380Z,38.59
2022-08-17T09:06:37.765Z,38.99
2022-08-17T09:09:08.900Z,38.95
2022-08-17T09:12:04.182Z,38.83
2022-08-17T09:14:44.935Z,38.97
2022-08-17T09:17:22.014Z,38.41
2022-08-17T09:19:51.960Z,38.29
2022-08-17T09:22:18.502Z,37.98
2022-08-17T09:24:54.698Z,37.86
2022-08-17T09:27:22.777Z,37.44
2022-08-17T09:29:56.348Z,37.29
2022-08-17T09:32:29.083Z,36.77
2022-08-17T09:35:00.208Z,36.75
2022-08-17T09:37:32.643Z,36.63
2022-08-17T09:40:11.395Z,36.51
2022-08-17T09:42:52.767Z,36.12
2022-08-17T09:45:25.388Z,35.90
2022-08-17T09:48:02.598Z,35.89
2022-08-17T09:51:01.625Z,35.79
2022-08-17T09:53:31.786Z,35.80
2022-08-17T09:56:23.993Z,35.71
2022-08-17T09:59:25.246Z,35.39
2022-08-17T10:01:59.530Z,35.49
2022-08-17T10:04:52.794Z,35.23
2022-08-17T10:07:42.286Z,35.38
2022-08-17T10:10:14.464Z,35.29
2022-08-17T10:12:47.636Z,35.70
2022-08-17T10:15:22.559Z,35.44
2022-08-17T10:18:16.483Z,35.34
2022-08-17T10:21:20.136Z,34.86
2022-08-17T10:24:08.079Z,35.04
2022-08-17T10:26:55.426Z,35.10
2022-08-17T10:29:28.921Z,34.99
2022-08-17T10:32:00.686Z,35.05
2022-08-17T10:34:30.182Z,34.86
2022-08-17T10:37:05.736Z,34.52
2022-08-17T10:40:10.059Z,34.36
2022-08-17T10:42:58.077Z,33.70
2022-08-17T10:46:27.694Z,33.59
2022-08-17T10:49:16.693Z,33.48
2022-08-17T10:51:45.922Z,33.59
2022-08-17T10:54:24.451Z,33.84
2022-08-17T10:56:55.208Z,33.71
2022-08-17T10:59:44.790Z,33.70
2022-08-17T11:02:23.537Z,33.67
2022-08-17T11:05:11.987Z,33.75
2022-08-17T11:08:01.658Z,33.81
2022-08-17T11:11:06.814Z,33.88
2022-08-17T11:13:59.302Z,33.90
2022-08-17T11:16:36.120Z,34.19
2022-08-17T11:19:14.851Z,34.13
2022-08-17T11:22:06.271Z,34.10
2022-08-17T11:24:39.876Z,34.08
2022-08-17T11:27:29.955Z,34.24
2022-08-17T11:30:02.280Z,34.32
2022-08-17T11:32:38.145Z,34.50
2022-08-17T11:35:22.534Z,34.28
2022-08-17T11:38:05.426Z,34.25
2022-08-17T11:40:38.561Z,34.11
2022-08-17T11:43:45.475Z,33.97
2022-08-17T11:46:14.685Z,34.46
2022-08-17T11:49:01.831Z,34.59
2022-08-17T11:51:58.080Z,34.41
2022-08-17T11:54:33.676Z,34.86
2022-08-17T11:57:21.575Z,35.07
2022-08-17T11:59:48.085Z,35.24
2022-08-17T12:02:32.855Z,35.58
2022-08-17T12:05:17.300Z,35.79
2022-08-17T12:08:11.540Z,35.79
2022-08-17T12:10:48.296Z,35.78
2022-08-17T12:13:15.717Z,35.50
2022-08-17T12:15:50.188Z,35.52
2022-08-17T12:18:39.565Z,35.67
2022-08-17T12:21:21.312Z,35.92
2022-08-17T12:24:13.178Z,36.38
2022-08-17T12:26:40.680Z,36.76
2022-08-17T12:29:18.067Z,36.67
2022-08-17T12:31:59.041Z,36.54
2022-08-17T12:34:34.924Z,36.36
2022-08-17T12:37:05.047Z,36.33
2022-08-17T12:39:33.990Z,36.25
2022-08-17T12:42:02.616Z,36.15
2022-08-17T12:44:34.060Z,36.14
2022-08-17T12:47:06.947Z,36.11
2022-08-17T12:49:35.608Z,36.06
2022-08-17T12:52:08.263Z,36.06
2022-08-17T12:54:59.579Z,36.06
2022-08-17T12:57:33.670Z,36.08
2022-08-17T13:00:04.375Z,36.03
2022-08-17T13:02:47.382Z,36.05
2022-08-17T13:05:23.302Z,36.01
2022-08-17T13:07:50.665Z,35.99
2022-08-17T13:10:21.438Z,35.93
2022-08-17T13:12:50.826Z,35.98
2022-08-17T13:15:27.553Z,36.01
2022-08-17T13:18:03.847Z,35.94
2022-08-17T13:20:30.467Z,35.97
2022-08-17T13:22:58.179Z,35.99
2022-08-17T13:25:25.433Z,35.98
2022-08-17T13:27:52.947Z,36.00
2022-08-17T13:30:24.067Z,36.00
2022-08-17T13:32:50.731Z,35.98
2022-08-17T13:35:38.866Z,36.07
2022-08-17T13:38:12.351Z,36.00
2022-08-17T13:40:42.108Z,36.00
2022-08-17T13:43:09.264Z,35.97
2022-08-17T13:45:50.799Z,35.98
2022-08-17T13:48:30.255Z,36.08
2022-08-17T13:50:56.833Z,36.12
2022-08-17T13:53:40.156Z,36.17
2022-08-17T13:56:38.700Z,36.40
2022-08-17T13:59:03.989Z,36.24
2022-08-17T14:01:36.033Z,36.20
2022-08-17T14:04:05.706Z,36.20
2022-08-17T14:07:03.675Z,36.20
2022-08-17T14:09:38.308Z,36.22
2022-08-17T14:12:06.907Z,36.18
2022-08-17T14:14:33.458Z,36.16
2022-08-17T14:17:00.023Z,36.14
2022-08-17T14:19:26.736Z,36.10
2022-08-17T14:21:58.786Z,36.13
2022-08-17T14:24:30.356Z,36.13
2022-08-17T14:26:57.609Z,36.10
2022-08-17T14:29:25.513Z,36.10
2022-08-17T14:31:54.359Z,36.12
2022-08-17T14:34:22.018Z,36.07
2022-08-17T14:36:48.844Z,36.08
2022-08-17T14:39:15.835Z,36.05
2022-08-17T14:41:42.444Z,36.07
2022-08-17T14:44:12.641Z,36.00
2022-08-17T14:46:40.848Z,36.06
2022-08-17T14:49:08.306Z,36.00
2022-08-17T14:51:36.412Z,36.00
2022-08-17T14:54:10.267Z,35.96
2022-08-17T14:56:38.594Z,35.93
2022-08-17T14:59:05.187Z,35.96
2022-08-17T15:01:31.842Z,35.95
2022-08-17T15:03:58.540Z,35.96
2022-08-17T15:06:25.183Z,35.91
2022-08-17T15:08:52.129Z,35.91
2022-08-17T15:11:18.787Z,35.92
2022-08-17T15:13:52.776Z,35.94
2022-08-17T15:16:20.495Z,36.00
2022-08-17T15:18:47.193Z,36.00
2022-08-17T15:21:14.845Z,35.97
2022-08-17T15:23:41.414Z,35.97
2022-08-17T15:26:10.272Z,35.94
2022-08-17T15:28:37.668Z,35.94
2022-08-17T15:31:05.733Z,35.95
2022-08-17T15:33:32.360Z,35.96
2022-08-17T15:36:04.659Z,36.00
2022-08-17T15:38:35.276Z,35.96
2022-08-17T15:41:01.882Z,35.92
2022-08-17T15:43:32.456Z,35.94
2022-08-17T15:46:07.185Z,35.91
2022-08-17T15:48:43.616Z,35.93
2022-08-17T15:51:13.871Z,35.92
2022-08-17T15:53:41.925Z,35.91
2022-08-17T15:56:08.515Z,35.92
2022-08-17T15:58:35.679Z,35.97
2022-08-17T16:01:16.617Z,35.93
2022-08-17T16:04:04.246Z,35.91
2022-08-17T16:06:31.911Z,35.95
2022-08-17T16:08:59.535Z,35.92
2022-08-17T16:11:26.400Z,35.92
2022-08-17T16:13:54.744Z,35.94
2022-08-17T16:16:23.655Z,35.91
2022-08-17T16:18:53.713Z,35.94
2022-08-17T16:21:25.714Z,35.95
2022-08-17T16:24:06.953Z,35.93
2022-08-17T16:26:40.030Z,35.93
2022-08-17T16:29:06.728Z,35.94
2022-08-17T16:31:34.004Z,35.95
2022-08-17T16:34:17.439Z,35.97
2022-08-17T16:36:54.709Z,35.95
2022-08-17T16:39:26.802Z,35.95
2022-08-17T16:41:53.568Z,35.93
2022-08-17T16:44:20.767Z,36.00
2022-08-17T16:46:47.761Z,35.95
2022-08-17T16:49:24.467Z,35.97
2022-08-17T16:52:02.954Z,36.00
2022-08-17T16:54:29.553Z,35.99
2022-08-17T16:56:56.138Z,36.00
2022-08-17T16:59:38.739Z,36.00
2022-08-17T17:02:10.862Z,35.99
2022-08-17T17:04:42.116Z,35.98
2022-08-17T17:07:25.717Z,35.99
2022-08-17T17:09:55.364Z,35.99
2022-08-17T17:13:01.724Z,35.99
2022-08-17T17:15:08.820Z,35.99
2022-08-17T17:17:36.924Z,36.02
2022-08-17T17:20:03.381Z,36.00
2022-08-17T17:22:50.107Z,36.00
2022-08-17T17:25:48.793Z,36.02
2022-08-17T17:28:34.933Z,36.00
2022-08-17T17:31:21.488Z,36.00
2022-08-17T17:34:03.775Z,36.03
2022-08-17T17:36:41.902Z,36.01
2022-08-17T17:39:32.472Z,36.00
2022-08-17T17:42:02.294Z,36.03
2022-08-17T17:44:32.318Z,36.04
2022-08-17T17:47:00.112Z,36.01
2022-08-17T17:49:28.925Z,36.00
2022-08-17T17:52:08.874Z,36.03
2022-08-17T17:55:28.506Z,36.01
2022-08-17T17:58:00.934Z,36.01
2022-08-17T18:01:05.068Z,35.96
2022-08-17T18:03:53.021Z,36.04
2022-08-17T18:06:35.535Z,36.02
2022-08-17T18:09:19.409Z,36.06
2022-08-17T18:11:51.394Z,36.04
2022-08-17T18:14:45.723Z,36.09
2022-08-17T18:17:14.238Z,36.12
2022-08-17T18:19:41.444Z,36.10
2022-08-17T18:22:14.686Z,36.14
2022-08-17T18:24:44.834Z,36.15
2022-08-17T18:27:39.231Z,36.12
2022-08-17T18:30:14.995Z,36.16
2022-08-17T18:32:43.524Z,36.13
2022-08-17T18:35:10.066Z,36.17
2022-08-17T18:37:49.359Z,36.15
2022-08-17T18:40:23.380Z,36.18
2022-08-17T18:43:00.437Z,36.17
2022-08-17T18:45:47.373Z,36.20
2022-08-17T18:48:36.449Z,36.24
2022-08-17T18:51:39.872Z,36.21
2022-08-17T18:54:22.875Z,36.22
2022-08-17T18:56:56.673Z,36.21
2022-08-17T18:59:42.244Z,36.25
2022-08-17T19:02:19.747Z,36.25
2022-08-17T19:05:04.025Z,36.23
2022-08-17T19:07:35.271Z,36.22
2022-08-17T19:10:46.415Z,36.24
2022-08-17T19:13:24.527Z,36.29
2022-08-17T19:16:13.804Z,36.28
2022-08-17T19:18:53.088Z,36.28
2022-08-17T19:21:40.380Z,36.30
2022-08-17T19:24:11.645Z,36.29
2022-08-17T19:27:10.397Z,36.33
2022-08-17T19:29:42.945Z,36.33
2022-08-17T19:32:10.116Z,36.29
2022-08-17T19:34:37.587Z,36.31
2022-08-17T19:37:25.957Z,36.33
2022-08-17T19:39:59.467Z,36.34
2022-08-17T19:42:58.098Z,36.29
2022-08-17T19:45:53.450Z,36.28
2022-08-17T19:48:39.824Z,36.28
2022-08-17T19:51:13.626Z,36.28
2022-08-17T19:54:14.140Z,36.28
2022-08-17T19:56:40.698Z,36.28
2022-08-17T19:59:20.116Z,36.28
2022-08-17T20:01:58.193Z,36.27
2022-08-17T20:04:32.431Z,36.25
2022-08-17T20:07:18.712Z,36.29
2022-08-17T20:09:49.346Z,36.28
2022-08-17T20:12:21.511Z,36.28
2022-08-17T20:14:55.218Z,36.23
2022-08-17T20:17:28.374Z,36.21
2022-08-17T20:20:19.771Z,36.27
2022-08-17T20:22:58.682Z,36.23
2022-08-17T20:26:06.808Z,36.27
2022-08-17T20:28:35.176Z,36.24
2022-08-17T20:31:02.119Z,36.23
2022-08-17T20:33:36.756Z,36.27
2022-08-17T20:36:12.819Z,36.26
2022-08-17T20:38:55.527Z,36.27
2022-08-17T20:41:31.171Z,36.29
2022-08-17T20:43:58.056Z,36.28
2022-08-17T20:46:36.725Z,36.27
2022-08-17T20:49:16.470Z,36.34
2022-08-17T20:52:07.769Z,36.32
2022-08-17T20:54:54.596Z,36.31
2022-08-17T20:57:33.388Z,36.32
2022-08-17T21:00:16.837Z,36.25
2022-08-17T21:02:45.078Z,36.25
2022-08-17T21:05:34.808Z,36.24
2022-08-17T21:08:25.046Z,36.25
2022-08-17T21:10:53.296Z,36.25
2022-08-17T21:13:34.818Z,36.24
2022-08-17T21:16:22.923Z,36.24
2022-08-17T21:18:59.969Z,36.24
2022-08-17T21:22:05.754Z,36.24
2022-08-17T21:24:41.461Z,36.24
2022-08-17T21:27:29.319Z,36.23
2022-08-17T21:30:01.776Z,36.21
2022-08-17T21:32:37.011Z,36.20
2022-08-17T21:35:21.607Z,36.23
2022-08-17T21:37:48.806Z,36.21
2022-08-17T21:40:18.648Z,36.23
2022-08-17T21:42:50.540Z,36.23
2022-08-17T21:45:31.820Z,36.24
2022-08-17T21:48:14.841Z,36.26
2022-08-17T21:50:45.269Z,36.27
2022-08-17T21:53:13.697Z,36.28
2022-08-17T21:55:40.529Z,36.30
2022-08-17T21:58:19.372Z,36.33
2022-08-17T22:00:46.018Z,36.36
2022-08-17T22:03:23.440Z,36.38
2022-08-17T22:05:51.382Z,36.40
2022-08-17T22:08:20.167Z,36.39
2022-08-17T22:10:48.980Z,36.42
2022-08-17T22:13:24.628Z,36.43
2022-08-17T22:33:50.580Z,36.46
2022-08-17T22:36:29.195Z,36.50
2022-08-17T22:39:23.085Z,36.48
2022-08-17T22:41:57.136Z,36.50
2022-08-17T22:44:35.565Z,36.50
2022-08-17T22:47:18.851Z,36.51
2022-08-17T22:49:56.482Z,36.51
2022-08-17T22:52:32.054Z,36.52
2022-08-17T22:55:33.859Z,36.54
2022-08-17T22:58:19.795Z,36.54
2022-08-17T23:00:48.172Z,36.52
2022-08-17T23:03:14.869Z,36.54
2022-08-17T23:05:44.861Z,36.54
2022-08-17T23:08:13.481Z,36.57
2022-08-17T23:10:41.422Z,36.56
2022-08-17T23:13:11.842Z,36.59
2022-08-17T23:15:40.212Z,36.61
2022-08-17T23:18:07.064Z,36.64
2022-08-17T23:20:37.551Z,36.66
2022-08-17T23:23:06.685Z,36.67
2022-08-17T23:25:34.087Z,36.66
2022-08-17T23:28:03.847Z,36.69
2022-08-17T23:30:31.554Z,36.70
2022-08-17T23:33:02.543Z,36.72
2022-08-17T23:35:39.824Z,36.70
2022-08-17T23:38:08.958Z,36.73
2022-08-17T23:40:35.593Z,36.76
2022-08-17T23:43:04.497Z,36.76
2022-08-17T23:45:32.574Z,36.78
2022-08-17T23:48:00.309Z,36.77
2022-08-17T23:50:29.880Z,36.77
2022-08-17T23:52:57.688Z,36.77
2022-08-17T23:55:24.348Z,36.79
2022-08-17T23:57:51.133Z,36.80
